Southern, Louisiana
Current Conditions -  °F | °C
As of 3:53 AM on Tuesday 27 Jan 2015 (Local Time) from KBTR Reporting Station
Clear Clear  
Wind Chill: 42°   Ceiling: Unl
Heat Index: 44°   Visibility: 10mi
Dew Point: 39°   Wind: 5mph
Humidity: 82%   Direction: 250°WSW
Pressure: 30.07"   Gusts: NA
Location:  30.5234°N, 91.1905°W
Report Text: KBTR 270953Z AUTO 25004KT 10SM CLR 07/04 A3007 RMK AO2 SLP180 T00670039 TSNO
Loading
Personal Weather Stations






























Interactive Weather Map New forecast layout! Learn more

10-Day Weather Forecast

Advertisements
Track Severe Weather on mobile